createdAt,value
2023-04-30T00:02:11.043Z,11.75
2023-04-30T00:04:39.687Z,12.77
2023-04-30T00:07:08.612Z,11.55
2023-04-30T00:09:36.932Z,16.45
2023-04-30T00:12:07.333Z,11.43
2023-04-30T00:14:36.719Z,8.40
2023-04-30T00:17:05.120Z,12.35
2023-04-30T00:19:33.421Z,11.88
2023-04-30T00:22:02.650Z,7.78
2023-04-30T00:24:30.993Z,8.38
2023-04-30T00:26:59.273Z,8.95
2023-04-30T00:29:28.930Z,12.40
2023-04-30T00:31:57.344Z,9.35
2023-04-30T00:34:25.834Z,11.20
2023-04-30T00:36:54.135Z,8.23
2023-04-30T00:39:22.448Z,10.07
2023-04-30T00:41:50.840Z,8.07
2023-04-30T00:44:19.055Z,8.27
2023-04-30T00:46:48.679Z,8.10
2023-04-30T00:49:17.192Z,5.25
2023-04-30T00:51:46.585Z,5.93
2023-04-30T00:54:15.509Z,10.95
2023-04-30T00:56:46.693Z,7.22
2023-04-30T00:59:18.789Z,8.93
2023-04-30T01:01:48.956Z,8.27
2023-04-30T01:04:17.461Z,8.75
2023-04-30T01:06:46.695Z,7.72
2023-04-30T01:09:15.242Z,10.95
2023-04-30T01:11:57.742Z,12.25
2023-04-30T01:14:30.090Z,7.82
2023-04-30T01:17:07.190Z,8.00
2023-04-30T01:19:42.178Z,8.70
2023-04-30T01:22:17.362Z,8.65
2023-04-30T01:24:58.601Z,8.98
2023-04-30T01:27:41.689Z,7.78
2023-04-30T01:30:13.133Z,7.38
2023-04-30T01:32:41.387Z,7.00
2023-04-30T01:35:10.471Z,9.77
2023-04-30T01:37:50.241Z,7.97
2023-04-30T01:40:29.250Z,9.50
2023-04-30T01:43:10.511Z,9.75
2023-04-30T01:45:53.892Z,11.32
2023-04-30T01:48:34.354Z,11.00
2023-04-30T01:51:10.093Z,9.77
2023-04-30T01:53:43.076Z,12.85
2023-04-30T01:56:16.043Z,10.55
2023-04-30T01:58:44.536Z,13.70
2023-04-30T02:01:31.249Z,14.18
2023-04-30T02:04:00.362Z,17.58
2023-04-30T02:06:30.162Z,14.18
2023-04-30T02:09:03.452Z,16.73
2023-04-30T02:11:32.044Z,19.52
2023-04-30T02:14:00.220Z,15.85
2023-04-30T02:16:29.773Z,16.05
2023-04-30T02:18:57.933Z,20.20
2023-04-30T02:21:27.299Z,16.70
2023-04-30T02:23:55.696Z,14.43
2023-04-30T02:26:24.310Z,12.13
2023-04-30T02:28:52.422Z,11.40
2023-04-30T02:31:21.123Z,13.40
2023-04-30T02:33:50.690Z,11.75
2023-04-30T02:36:18.921Z,11.43
2023-04-30T02:38:47.248Z,11.90
2023-04-30T02:41:15.485Z,14.13
2023-04-30T02:43:44.206Z,8.57
2023-04-30T02:46:12.538Z,11.95
2023-04-30T02:48:40.750Z,10.60
2023-04-30T02:51:10.386Z,9.75
2023-04-30T02:53:41.694Z,12.45
2023-04-30T02:56:10.088Z,11.25
2023-04-30T02:58:38.406Z,8.73
2023-04-30T03:01:07.822Z,11.18
2023-04-30T03:03:36.807Z,6.88
2023-04-30T03:06:05.329Z,7.03
2023-04-30T03:08:34.938Z,11.57
2023-04-30T03:11:03.769Z,11.48
2023-04-30T03:13:32.001Z,9.23
2023-04-30T03:16:00.637Z,9.10
2023-04-30T03:18:29.416Z,9.48
2023-04-30T03:20:57.710Z,10.15
2023-04-30T03:23:25.979Z,10.60
2023-04-30T03:25:58.891Z,10.88
2023-04-30T03:28:27.992Z,8.40
2023-04-30T03:30:56.325Z,13.77
2023-04-30T03:33:24.653Z,8.68
2023-04-30T03:35:53.497Z,10.05
2023-04-30T03:38:21.718Z,10.95
2023-04-30T03:40:50.327Z,7.32
2023-04-30T03:43:19.998Z,9.05
2023-04-30T03:45:48.827Z,7.70
2023-04-30T03:48:17.478Z,14.00
2023-04-30T03:50:46.505Z,7.35
2023-04-30T03:53:14.737Z,9.35
2023-04-30T03:55:43.693Z,18.65
2023-04-30T03:58:12.172Z,9.70
2023-04-30T04:00:43.340Z,7.43
2023-04-30T04:03:11.601Z,9.93
2023-04-30T04:05:40.055Z,10.43
2023-04-30T04:08:08.614Z,13.93
2023-04-30T04:10:37.720Z,8.60
2023-04-30T04:13:07.193Z,13.88
2023-04-30T04:15:35.840Z,11.00
2023-04-30T04:18:07.172Z,12.23
2023-04-30T04:20:35.552Z,19.15
2023-04-30T04:23:03.813Z,11.35
2023-04-30T04:25:33.480Z,13.15
2023-04-30T04:28:05.142Z,11.35
2023-04-30T04:30:33.915Z,8.65
2023-04-30T04:33:02.075Z,9.45
2023-04-30T04:35:31.664Z,9.23
2023-04-30T04:38:00.394Z,12.43
2023-04-30T04:40:29.904Z,12.25
2023-04-30T04:43:00.118Z,8.98
2023-04-30T04:45:28.393Z,14.05
2023-04-30T04:47:56.632Z,9.63
2023-04-30T04:50:25.382Z,14.73
2023-04-30T04:52:55.105Z,11.48
2023-04-30T04:55:23.315Z,12.05
2023-04-30T04:57:51.887Z,11.35
2023-04-30T05:00:22.146Z,8.38
2023-04-30T05:02:50.479Z,12.45
2023-04-30T05:05:18.952Z,5.22
2023-04-30T05:07:47.187Z,13.07
2023-04-30T05:10:16.797Z,8.48
2023-04-30T05:12:47.938Z,9.38
2023-04-30T05:15:16.210Z,8.18
2023-04-30T05:17:44.419Z,11.18
2023-04-30T05:20:13.665Z,11.57
2023-04-30T05:22:42.442Z,10.85
2023-04-30T05:25:11.266Z,12.02
2023-04-30T05:27:41.112Z,13.70
2023-04-30T05:30:10.531Z,15.15
2023-04-30T05:32:38.857Z,9.50
2023-04-30T05:35:08.066Z,16.95
2023-04-30T05:37:36.895Z,9.15
2023-04-30T05:40:06.386Z,11.02
2023-04-30T05:42:34.670Z,10.88
2023-04-30T05:45:05.000Z,10.52
2023-04-30T05:47:33.240Z,9.07
2023-04-30T05:50:01.595Z,13.23
2023-04-30T05:52:29.825Z,10.07
2023-04-30T05:54:58.090Z,8.57
2023-04-30T05:57:26.498Z,8.00
2023-04-30T05:59:54.878Z,9.25
2023-04-30T06:02:24.991Z,6.40
2023-04-30T06:04:53.488Z,9.02
2023-04-30T06:07:21.724Z,7.28
2023-04-30T06:09:50.410Z,8.77
2023-04-30T06:12:18.717Z,10.63
2023-04-30T06:14:47.038Z,9.68
2023-04-30T06:17:16.055Z,10.55
2023-04-30T06:19:45.642Z,14.52
2023-04-30T06:22:14.467Z,11.57
2023-04-30T06:24:42.817Z,9.02
2023-04-30T06:27:11.159Z,7.10
2023-04-30T06:29:39.450Z,12.30
2023-04-30T06:32:08.619Z,10.35
2023-04-30T06:34:37.556Z,11.05
2023-04-30T06:37:07.309Z,7.65
2023-04-30T06:39:35.865Z,4.97
2023-04-30T06:42:04.390Z,10.82
2023-04-30T06:44:33.177Z,5.20
2023-04-30T06:47:01.393Z,8.27
2023-04-30T06:49:29.662Z,5.15
2023-04-30T06:51:58.694Z,8.10
2023-04-30T06:54:28.668Z,6.25
2023-04-30T06:56:56.911Z,13.15
2023-04-30T06:59:25.245Z,9.70
2023-04-30T07:01:53.610Z,6.95
2023-04-30T07:04:22.079Z,6.43
2023-04-30T07:06:50.989Z,5.88
2023-04-30T07:09:19.406Z,8.95
2023-04-30T07:11:49.052Z,5.43
2023-04-30T07:14:17.572Z,6.82
2023-04-30T07:16:46.674Z,5.90
2023-04-30T07:19:15.230Z,9.18
2023-04-30T07:21:44.135Z,7.65
2023-04-30T07:24:12.433Z,6.00
2023-04-30T07:26:44.463Z,7.15
2023-04-30T07:29:14.093Z,6.03
2023-04-30T07:31:42.393Z,6.32
2023-04-30T07:34:11.444Z,7.88
2023-04-30T07:36:39.930Z,9.15
2023-04-30T07:39:08.329Z,9.23
2023-04-30T07:41:36.631Z,4.70
2023-04-30T07:44:04.946Z,4.80
2023-04-30T07:46:35.135Z,8.43
2023-04-30T07:49:04.050Z,6.82
2023-04-30T07:51:32.948Z,7.75
2023-04-30T07:54:01.790Z,5.63
2023-04-30T07:56:33.221Z,7.15
2023-04-30T07:59:02.297Z,9.38
2023-04-30T08:01:30.594Z,8.43
2023-04-30T08:04:00.510Z,7.07
2023-04-30T08:06:28.989Z,5.05
2023-04-30T08:08:57.558Z,5.40
2023-04-30T08:11:26.155Z,5.45
2023-04-30T08:13:54.415Z,4.90
2023-04-30T08:16:22.895Z,4.82
2023-04-30T08:18:51.360Z,4.72
2023-04-30T08:21:21.174Z,5.03
2023-04-30T08:23:49.802Z,7.65
2023-04-30T08:26:18.124Z,4.90
2023-04-30T08:28:46.431Z,6.13
2023-04-30T08:31:15.054Z,8.00
2023-04-30T08:33:43.281Z,5.57
2023-04-30T08:36:11.789Z,5.70
2023-04-30T08:38:41.547Z,5.90
2023-04-30T08:41:13.270Z,6.35
2023-04-30T08:43:42.135Z,4.90
2023-04-30T08:46:13.167Z,5.47
2023-04-30T08:48:42.776Z,5.82
2023-04-30T08:51:11.109Z,7.40
2023-04-30T08:53:41.504Z,6.00
2023-04-30T08:56:11.801Z,6.63
2023-04-30T08:58:41.630Z,5.13
2023-04-30T09:01:11.325Z,5.97
2023-04-30T09:03:39.754Z,5.82
2023-04-30T09:06:08.377Z,4.72
2023-04-30T09:08:46.939Z,6.28
2023-04-30T09:11:26.686Z,4.72
2023-04-30T09:13:57.402Z,4.68
2023-04-30T09:16:26.905Z,5.15
2023-04-30T09:18:56.817Z,8.98
2023-04-30T09:21:33.322Z,4.85
2023-04-30T09:24:04.466Z,5.10
2023-04-30T09:26:35.006Z,6.05
2023-04-30T09:29:08.065Z,7.22
2023-04-30T09:31:37.405Z,5.85
2023-04-30T09:34:06.119Z,5.75
2023-04-30T09:36:35.270Z,8.57
2023-04-30T09:39:14.211Z,8.85
2023-04-30T09:41:44.662Z,6.72
2023-04-30T09:44:28.425Z,6.63
2023-04-30T09:46:58.894Z,6.05
2023-04-30T09:49:27.932Z,5.65
2023-04-30T09:51:57.695Z,6.25
2023-04-30T09:54:31.171Z,3.22
2023-04-30T09:57:01.671Z,3.88
2023-04-30T09:59:35.430Z,5.72
2023-04-30T10:02:05.674Z,3.97
2023-04-30T10:04:36.590Z,6.32
2023-04-30T10:07:09.714Z,4.88
2023-04-30T10:09:42.955Z,6.47
2023-04-30T10:12:16.183Z,5.40
2023-04-30T10:14:50.317Z,5.03
2023-04-30T10:17:19.696Z,5.72
2023-04-30T10:19:51.291Z,6.57
2023-04-30T10:22:20.755Z,5.80
2023-04-30T10:24:51.449Z,4.97
2023-04-30T10:27:21.372Z,3.55
2023-04-30T10:29:51.616Z,4.07
2023-04-30T10:32:21.599Z,4.07
2023-04-30T10:34:56.547Z,6.93
2023-04-30T10:37:32.539Z,4.45
2023-04-30T10:40:06.185Z,3.15
2023-04-30T10:42:36.432Z,6.55
2023-04-30T10:45:05.138Z,5.47
2023-04-30T10:47:33.496Z,4.90
2023-04-30T10:50:05.451Z,4.57
2023-04-30T10:52:33.659Z,6.10
2023-04-30T10:55:08.551Z,3.72
2023-04-30T10:57:43.695Z,4.78
2023-04-30T11:00:25.854Z,3.85
2023-04-30T11:02:59.365Z,3.78
2023-04-30T11:05:38.607Z,6.38
2023-04-30T11:08:07.349Z,3.40
2023-04-30T11:10:37.571Z,5.05
2023-04-30T11:13:07.787Z,5.47
2023-04-30T11:15:41.802Z,3.75
2023-04-30T11:18:10.809Z,4.00
2023-04-30T11:20:42.407Z,4.93
2023-04-30T11:23:13.193Z,4.47
2023-04-30T11:25:49.320Z,4.53
2023-04-30T11:28:19.629Z,5.75
2023-04-30T11:30:53.070Z,6.07
2023-04-30T11:33:22.157Z,4.43
2023-04-30T11:35:52.873Z,3.78
2023-04-30T11:38:23.042Z,5.35
2023-04-30T11:40:54.287Z,5.85
2023-04-30T11:43:23.937Z,5.72
2023-04-30T11:46:03.658Z,4.00
2023-04-30T11:48:33.447Z,6.82
2023-04-30T11:51:04.424Z,5.53
2023-04-30T11:53:33.401Z,5.40
2023-04-30T11:56:07.256Z,5.20
2023-04-30T11:58:37.993Z,5.95
2023-04-30T12:01:11.043Z,5.35
2023-04-30T12:03:45.722Z,3.67
2023-04-30T12:06:22.691Z,5.22
2023-04-30T12:08:51.194Z,2.92
2023-04-30T12:11:25.891Z,6.00
2023-04-30T12:13:55.947Z,4.43
2023-04-30T12:16:26.301Z,4.47
2023-04-30T12:18:55.564Z,6.15
2023-04-30T12:21:24.453Z,4.18
2023-04-30T12:23:53.454Z,4.93
2023-04-30T12:26:23.350Z,4.68
2023-04-30T12:28:52.148Z,4.70
2023-04-30T12:31:20.544Z,4.25
2023-04-30T12:33:58.089Z,5.88
2023-04-30T12:36:33.746Z,4.97
2023-04-30T12:39:09.576Z,4.20
2023-04-30T12:41:42.885Z,4.57
2023-04-30T12:44:21.775Z,3.50
2023-04-30T12:46:51.278Z,5.60
2023-04-30T12:49:27.097Z,4.18
2023-04-30T12:52:01.310Z,7.45
2023-04-30T12:54:31.065Z,5.07
2023-04-30T12:57:02.785Z,5.47
2023-04-30T12:59:31.973Z,4.47
2023-04-30T13:02:11.927Z,6.00
2023-04-30T13:04:40.993Z,5.10
2023-04-30T13:07:09.318Z,4.45
2023-04-30T13:09:39.299Z,7.93
2023-04-30T13:12:08.984Z,3.88
2023-04-30T13:14:37.287Z,5.20
2023-04-30T13:17:07.353Z,6.22
2023-04-30T13:19:35.720Z,5.05
2023-04-30T13:22:10.390Z,6.30
2023-04-30T13:24:38.618Z,8.40
2023-04-30T13:27:08.712Z,3.60
2023-04-30T13:29:36.985Z,5.68
2023-04-30T13:32:06.027Z,5.22
2023-04-30T13:34:34.507Z,6.88
2023-04-30T13:37:03.159Z,3.30
2023-04-30T13:39:47.817Z,4.88
2023-04-30T13:42:18.031Z,3.20
2023-04-30T13:44:48.650Z,5.35
2023-04-30T13:47:17.391Z,3.17
2023-04-30T13:49:46.109Z,4.70
2023-04-30T13:52:14.374Z,6.05
2023-04-30T13:54:43.196Z,5.00
2023-04-30T13:57:12.153Z,5.28
2023-04-30T13:59:41.851Z,3.53
2023-04-30T14:02:10.909Z,4.10
2023-04-30T14:04:39.189Z,6.60
2023-04-30T14:07:07.766Z,4.10
2023-04-30T14:09:36.217Z,3.25
2023-04-30T14:12:05.150Z,2.30
2023-04-30T14:14:33.554Z,2.63
2023-04-30T14:17:12.765Z,1.95
2023-04-30T14:19:41.700Z,2.88
2023-04-30T14:22:09.972Z,2.38
2023-04-30T14:24:39.061Z,2.72
2023-04-30T14:27:07.349Z,5.00
2023-04-30T14:29:38.695Z,3.90
2023-04-30T14:32:07.969Z,3.08
2023-04-30T14:34:38.299Z,3.00
2023-04-30T14:37:06.826Z,5.00
2023-04-30T14:39:35.415Z,6.20
2023-04-30T14:42:04.105Z,3.35
2023-04-30T14:44:32.334Z,3.97
2023-04-30T14:47:00.681Z,3.42
2023-04-30T14:49:29.444Z,2.25
2023-04-30T14:51:59.078Z,3.88
2023-04-30T14:54:27.613Z,2.65
2023-04-30T14:56:56.192Z,6.53
2023-04-30T14:59:24.406Z,3.00
2023-04-30T15:01:52.703Z,2.30
2023-04-30T15:04:21.283Z,5.00
2023-04-30T15:06:49.613Z,3.72
2023-04-30T15:09:19.307Z,6.15
2023-04-30T15:11:48.486Z,4.95
2023-04-30T15:14:17.630Z,3.47
2023-04-30T15:16:46.645Z,4.55
2023-04-30T15:19:15.171Z,3.13
2023-04-30T15:21:49.102Z,4.05
2023-04-30T15:24:19.018Z,3.20
2023-04-30T15:26:47.462Z,7.10
2023-04-30T15:29:15.721Z,4.13
2023-04-30T15:31:44.161Z,5.28
2023-04-30T15:34:12.361Z,4.05
2023-04-30T15:36:40.680Z,3.08
2023-04-30T15:39:08.879Z,5.35
2023-04-30T15:41:39.317Z,3.75
2023-04-30T15:44:07.659Z,5.55
2023-04-30T15:46:36.082Z,4.72
2023-04-30T15:49:04.383Z,6.03
2023-04-30T15:51:33.102Z,4.97
2023-04-30T15:54:01.671Z,7.72
2023-04-30T15:56:31.114Z,6.32
2023-04-30T15:59:01.542Z,5.13
2023-04-30T16:01:29.821Z,2.40
2023-04-30T16:03:58.271Z,4.93
2023-04-30T16:06:27.685Z,11.07
2023-04-30T16:08:56.266Z,5.22
2023-04-30T16:11:24.996Z,5.15
2023-04-30T16:13:53.458Z,4.00
2023-04-30T16:16:23.134Z,3.42
2023-04-30T16:18:51.671Z,5.47
2023-04-30T16:21:20.065Z,3.83
2023-04-30T16:23:48.456Z,4.88
2023-04-30T16:26:17.424Z,3.30
2023-04-30T16:28:46.908Z,3.72
2023-04-30T16:31:16.819Z,5.72
2023-04-30T16:33:46.946Z,4.07
2023-04-30T16:36:15.356Z,4.93
2023-04-30T16:38:44.413Z,6.28
2023-04-30T16:41:12.851Z,5.35
2023-04-30T16:43:41.106Z,3.60
2023-04-30T16:46:09.472Z,2.75
2023-04-30T16:48:38.122Z,4.03
2023-04-30T16:51:09.534Z,6.80
2023-04-30T16:53:37.780Z,6.07
2023-04-30T16:56:06.903Z,6.07
2023-04-30T16:58:36.410Z,5.68
2023-04-30T17:01:04.676Z,5.68
2023-04-30T17:03:34.783Z,4.05
2023-04-30T17:06:04.192Z,5.57
2023-04-30T17:08:33.964Z,4.43
2023-04-30T17:11:02.680Z,5.38
2023-04-30T17:13:32.261Z,2.65
2023-04-30T17:16:01.937Z,4.22
2023-04-30T17:18:31.690Z,6.35
2023-04-30T17:21:00.534Z,4.65
2023-04-30T17:23:28.753Z,5.80
2023-04-30T17:25:58.354Z,4.72
2023-04-30T17:28:26.752Z,6.07
2023-04-30T17:30:56.556Z,4.25
2023-04-30T17:33:26.579Z,4.00
2023-04-30T17:35:55.122Z,5.82
2023-04-30T17:38:23.454Z,7.88
2023-04-30T17:40:53.216Z,4.38
2023-04-30T17:43:22.854Z,5.10
2023-04-30T17:45:53.298Z,4.47
2023-04-30T17:48:21.769Z,6.20
2023-04-30T17:50:50.428Z,4.45
2023-04-30T17:53:18.682Z,5.18
2023-04-30T17:55:46.967Z,3.03
2023-04-30T17:58:15.171Z,3.30
2023-04-30T18:00:44.975Z,3.63
2023-04-30T18:03:13.697Z,8.25
2023-04-30T18:05:42.362Z,3.08
2023-04-30T18:08:11.109Z,4.80
2023-04-30T18:10:39.486Z,4.38
2023-04-30T18:13:07.962Z,6.93
2023-04-30T18:15:37.597Z,5.28
2023-04-30T18:18:07.852Z,9.20
2023-04-30T18:20:36.382Z,4.00
2023-04-30T18:23:05.250Z,6.65
2023-04-30T18:25:36.975Z,6.47
2023-04-30T18:28:05.375Z,4.93
2023-04-30T18:30:34.791Z,3.53
2023-04-30T18:33:03.231Z,3.55
2023-04-30T18:35:33.408Z,5.57
2023-04-30T18:38:02.511Z,4.22
2023-04-30T18:40:31.745Z,7.30
2023-04-30T18:43:00.511Z,4.60
2023-04-30T18:45:28.715Z,6.97
2023-04-30T18:47:57.311Z,9.93
2023-04-30T18:50:27.392Z,8.93
2023-04-30T18:52:56.953Z,9.77
2023-04-30T18:55:25.380Z,8.70
2023-04-30T18:57:56.330Z,7.60
2023-04-30T19:00:24.942Z,6.28
2023-04-30T19:02:53.570Z,7.72
2023-04-30T19:05:21.969Z,7.65
2023-04-30T19:07:50.503Z,6.45
2023-04-30T19:10:20.297Z,9.85
2023-04-30T19:12:49.395Z,8.63
2023-04-30T19:15:17.871Z,8.27
2023-04-30T19:17:46.334Z,9.65
2023-04-30T19:20:14.805Z,8.88
2023-04-30T19:22:43.620Z,13.93
2023-04-30T19:25:12.368Z,9.23
2023-04-30T19:27:43.962Z,8.45
2023-04-30T19:30:14.453Z,5.95
2023-04-30T19:32:43.033Z,5.22
2023-04-30T19:35:14.431Z,5.90
2023-04-30T19:37:43.024Z,5.45
2023-04-30T19:40:12.524Z,9.82
2023-04-30T19:42:42.308Z,7.43
2023-04-30T19:45:11.989Z,4.95
2023-04-30T19:47:40.357Z,5.28
2023-04-30T19:50:10.085Z,6.53
2023-04-30T19:52:38.327Z,4.28
2023-04-30T19:55:07.088Z,8.20
2023-04-30T19:57:36.398Z,6.53
2023-04-30T20:00:07.234Z,7.63
2023-04-30T20:02:35.561Z,7.00
2023-04-30T20:05:06.964Z,5.93
2023-04-30T20:07:35.840Z,7.72
2023-04-30T20:10:04.526Z,6.57
2023-04-30T20:12:33.194Z,7.85
2023-04-30T20:15:01.405Z,4.05
2023-04-30T20:17:33.925Z,5.72
2023-04-30T20:20:02.728Z,5.40
2023-04-30T20:22:31.209Z,3.85
2023-04-30T20:24:59.696Z,5.60
2023-04-30T20:27:27.890Z,5.47
2023-04-30T20:29:56.284Z,6.68
2023-04-30T20:32:24.816Z,3.67
2023-04-30T20:34:54.548Z,7.97
2023-04-30T20:37:23.548Z,6.10
2023-04-30T20:39:51.905Z,6.93
2023-04-30T20:42:20.324Z,5.03
2023-04-30T20:44:48.678Z,8.90
2023-04-30T20:47:17.111Z,11.98
2023-04-30T20:49:45.304Z,15.02
2023-04-30T20:52:15.355Z,11.15
2023-04-30T20:54:44.033Z,10.55
2023-04-30T20:57:12.574Z,7.93
2023-04-30T20:59:41.436Z,11.73
2023-04-30T21:02:10.355Z,10.27
2023-04-30T21:04:38.654Z,12.38
2023-04-30T21:07:06.918Z,11.02
2023-04-30T21:09:38.253Z,8.32
2023-04-30T21:12:07.003Z,10.68
2023-04-30T21:14:35.591Z,9.00
2023-04-30T21:17:04.537Z,8.55
2023-04-30T21:19:33.789Z,10.98
2023-04-30T21:22:02.044Z,9.13
2023-04-30T21:24:32.121Z,10.23
2023-04-30T21:27:02.267Z,9.35
2023-04-30T21:29:30.585Z,14.52
2023-04-30T21:31:59.045Z,9.70
2023-04-30T21:34:27.346Z,10.38
2023-04-30T21:36:55.699Z,10.13
2023-04-30T21:39:23.945Z,10.23
2023-04-30T21:41:52.326Z,9.65
2023-04-30T21:44:21.988Z,11.60
2023-04-30T21:46:50.827Z,10.55
2023-04-30T21:49:19.318Z,7.15
2023-04-30T21:51:51.429Z,12.93
2023-04-30T21:54:22.716Z,11.98
2023-04-30T21:56:51.045Z,8.23
2023-04-30T21:59:19.394Z,8.55
2023-04-30T22:01:49.511Z,14.18
2023-04-30T22:04:21.510Z,7.68
2023-04-30T22:06:50.208Z,10.18
2023-04-30T22:09:18.504Z,9.90
2023-04-30T22:11:47.272Z,10.43
2023-04-30T22:14:15.712Z,9.00
2023-04-30T22:16:44.434Z,10.90
2023-04-30T22:19:16.893Z,12.35
2023-04-30T22:21:45.497Z,8.80
2023-04-30T22:24:15.391Z,8.98
2023-04-30T22:26:44.357Z,7.63
2023-04-30T22:29:12.572Z,8.68
2023-04-30T22:31:40.828Z,10.82
2023-04-30T22:34:09.641Z,7.38
2023-04-30T22:36:39.273Z,9.80
2023-04-30T22:39:08.026Z,8.30
2023-04-30T22:41:36.551Z,6.95
2023-04-30T22:44:05.881Z,9.70
2023-04-30T22:46:36.881Z,9.95
2023-04-30T22:49:05.126Z,9.20
2023-04-30T22:51:36.430Z,11.13
2023-04-30T22:54:06.290Z,9.13
2023-04-30T22:56:34.531Z,7.78
2023-04-30T22:59:03.378Z,9.85
2023-04-30T23:01:31.617Z,8.18
2023-04-30T23:04:00.058Z,10.90
2023-04-30T23:06:31.939Z,6.93
2023-04-30T23:09:00.236Z,8.95
2023-04-30T23:11:29.745Z,10.93
2023-04-30T23:13:57.910Z,6.78
2023-04-30T23:16:26.137Z,10.20
2023-04-30T23:18:54.488Z,13.38
2023-04-30T23:21:25.675Z,6.13
2023-04-30T23:23:54.028Z,7.78
2023-04-30T23:26:23.244Z,6.75
2023-04-30T23:28:53.535Z,6.78
2023-04-30T23:31:21.774Z,6.15
2023-04-30T23:33:49.949Z,7.55
2023-04-30T23:36:18.396Z,7.45
2023-04-30T23:38:47.567Z,10.88
2023-04-30T23:41:16.356Z,8.23
2023-04-30T23:43:44.739Z,9.10
2023-04-30T23:46:15.948Z,9.38
2023-04-30T23:48:44.201Z,7.07
2023-04-30T23:51:12.735Z,7.40
2023-04-30T23:53:40.972Z,9.52
2023-04-30T23:56:09.496Z,8.80
2023-04-30T23:58:38.250Z,8.00
